SKW3384 KMRY-KSAN
Flight info
| Callsign | SKW3384 |
|---|---|
| Flight time | 1h 0m |
| Altitude | 33000 |
| Route | DCT SERFR DCT CALIS DCT LAX COMIX2 |
| Aircraft | E75L/M-SDE3GILORVW/S |
Departure
| Time | 2026-04-22 01:44 |
|---|---|
| Airport | Monterey Regional Airport (KMRY) |
Arrival
| Time | 2026-04-22 02:45 |
|---|---|
| Airport | San Diego International Airport (KSAN) |
| Time | Latitude | Longitude | Altitude | Speed | Heading |
|---|---|---|---|---|---|
| 2026-04-22 01:21 | 36.58777 | -121.85041 | 188 ft | 0 kts | 237° |
| 2026-04-22 01:33 | 36.58780 | -121.85036 | 197 ft | 4 kts | 237° |
| 2026-04-22 01:33 | 36.58797 | -121.85012 | 208 ft | 4 kts | 208° |
| 2026-04-22 01:33 | 36.58812 | -121.85014 | 205 ft | 2 kts | 114° |
| 2026-04-22 01:33 | 36.58814 | -121.85020 | 203 ft | 0 kts | 114° |
| 2026-04-22 01:39 | 36.58814 | -121.85019 | 195 ft | 1 kts | 114° |
| 2026-04-22 01:39 | 36.58807 | -121.85000 | 203 ft | 3 kts | 114° |
| 2026-04-22 01:39 | 36.58798 | -121.84976 | 199 ft | 3 kts | 114° |
| 2026-04-22 01:39 | 36.58787 | -121.84944 | 203 ft | 5 kts | 114° |
| 2026-04-22 01:40 | 36.58767 | -121.84888 | 202 ft | 9 kts | 114° |
| 2026-04-22 01:40 | 36.58742 | -121.84809 | 208 ft | 11 kts | 111° |
| 2026-04-22 01:40 | 36.58712 | -121.84719 | 217 ft | 12 kts | 112° |
| 2026-04-22 01:40 | 36.58671 | -121.84622 | 215 ft | 13 kts | 122° |
| 2026-04-22 01:41 | 36.58629 | -121.84515 | 220 ft | 15 kts | 112° |
| 2026-04-22 01:41 | 36.58584 | -121.84385 | 224 ft | 18 kts | 114° |
| 2026-04-22 01:41 | 36.58533 | -121.84235 | 228 ft | 20 kts | 114° |
| 2026-04-22 01:41 | 36.58477 | -121.84072 | 234 ft | 21 kts | 112° |
| 2026-04-22 01:42 | 36.58416 | -121.83897 | 239 ft | 23 kts | 109° |
| 2026-04-22 01:42 | 36.58354 | -121.83711 | 246 ft | 24 kts | 115° |
| 2026-04-22 01:42 | 36.58299 | -121.83543 | 251 ft | 17 kts | 109° |
| 2026-04-22 01:42 | 36.58285 | -121.83443 | 256 ft | 10 kts | 95° |
| 2026-04-22 01:43 | 36.58302 | -121.83375 | 263 ft | 8 kts | 33° |
| 2026-04-22 01:43 | 36.58348 | -121.83399 | 260 ft | 0 kts | 294° |
| 2026-04-22 01:43 | 36.58348 | -121.83400 | 260 ft | 1 kts | 294° |
| 2026-04-22 01:43 | 36.58382 | -121.83497 | 256 ft | 40 kts | 292° |
| 2026-04-22 01:44 | 36.58592 | -121.84127 | 233 ft | 116 kts | 294° |
| 2026-04-22 01:44 | 36.58952 | -121.85313 | 319 ft | 167 kts | 283° |
| 2026-04-22 01:44 | 36.59483 | -121.86547 | 1352 ft | 160 kts | 310° |
| 2026-04-22 01:44 | 36.60499 | -121.87215 | 1900 ft | 177 kts | 335° |
| 2026-04-22 01:45 | 36.61713 | -121.87695 | 2396 ft | 192 kts | 340° |
| 2026-04-22 01:45 | 36.63073 | -121.88095 | 2808 ft | 208 kts | 342° |
| 2026-04-22 01:45 | 36.64515 | -121.88557 | 3274 ft | 219 kts | 339° |
| 2026-04-22 01:45 | 36.65825 | -121.89521 | 3694 ft | 222 kts | 306° |
| 2026-04-22 01:46 | 36.66436 | -121.91311 | 4103 ft | 238 kts | 273° |
| 2026-04-22 01:46 | 36.66071 | -121.93345 | 4630 ft | 249 kts | 240° |
| 2026-04-22 01:46 | 36.64799 | -121.94820 | 5331 ft | 258 kts | 208° |
| 2026-04-22 01:46 | 36.63049 | -121.95225 | 6079 ft | 266 kts | 178° |
| 2026-04-22 01:47 | 36.61296 | -121.94421 | 6746 ft | 277 kts | 148° |
| 2026-04-22 01:47 | 36.59813 | -121.92860 | 7378 ft | 281 kts | 142° |
| 2026-04-22 01:47 | 36.58331 | -121.91253 | 7965 ft | 284 kts | 143° |
| 2026-04-22 01:47 | 36.56832 | -121.89640 | 8566 ft | 286 kts | 143° |
| 2026-04-22 01:48 | 36.55317 | -121.88013 | 9101 ft | 290 kts | 142° |
| 2026-04-22 01:48 | 36.53789 | -121.86352 | 9669 ft | 292 kts | 142° |
| 2026-04-22 01:48 | 36.52237 | -121.84688 | 10164 ft | 297 kts | 143° |
| 2026-04-22 01:48 | 36.50615 | -121.82966 | 10306 ft | 315 kts | 143° |
| 2026-04-22 01:49 | 36.48908 | -121.81148 | 10425 ft | 330 kts | 143° |
| 2026-04-22 01:49 | 36.47151 | -121.79261 | 10833 ft | 334 kts | 143° |
| 2026-04-22 01:49 | 36.45365 | -121.77380 | 11253 ft | 337 kts | 144° |
| 2026-04-22 01:49 | 36.43576 | -121.75479 | 11770 ft | 340 kts | 143° |
| 2026-04-22 01:50 | 36.41782 | -121.73541 | 12261 ft | 343 kts | 143° |
| 2026-04-22 01:50 | 36.39959 | -121.71592 | 12695 ft | 347 kts | 143° |
| 2026-04-22 01:50 | 36.38121 | -121.69661 | 13060 ft | 353 kts | 144° |
| 2026-04-22 01:50 | 36.36242 | -121.67663 | 13572 ft | 357 kts | 143° |
| 2026-04-22 01:51 | 36.34377 | -121.65592 | 14038 ft | 363 kts | 143° |
| 2026-04-22 01:51 | 36.32453 | -121.63551 | 14408 ft | 365 kts | 147° |
| 2026-04-22 01:51 | 36.30443 | -121.61584 | 14791 ft | 371 kts | 146° |
| 2026-04-22 01:51 | 36.28497 | -121.59425 | 15281 ft | 379 kts | 144° |
| 2026-04-22 01:52 | 36.26512 | -121.57241 | 15792 ft | 384 kts | 145° |
| 2026-04-22 01:52 | 36.24476 | -121.55044 | 16289 ft | 390 kts | 146° |
| 2026-04-22 01:52 | 36.22386 | -121.52882 | 16821 ft | 394 kts | 147° |
| 2026-04-22 01:52 | 36.20342 | -121.50586 | 17417 ft | 399 kts | 145° |
| 2026-04-22 01:53 | 36.18242 | -121.48322 | 17994 ft | 402 kts | 147° |
| 2026-04-22 01:53 | 36.16096 | -121.46044 | 18493 ft | 408 kts | 148° |
| 2026-04-22 01:53 | 36.13927 | -121.43747 | 19018 ft | 411 kts | 148° |
| 2026-04-22 01:53 | 36.11718 | -121.41475 | 19508 ft | 416 kts | 149° |
| 2026-04-22 01:54 | 36.09490 | -121.39150 | 20005 ft | 422 kts | 149° |
| 2026-04-22 01:54 | 36.07256 | -121.36835 | 20505 ft | 425 kts | 151° |
| 2026-04-22 01:54 | 36.04799 | -121.34914 | 20925 ft | 415 kts | 164° |
| 2026-04-22 01:54 | 36.02172 | -121.33523 | 21512 ft | 409 kts | 170° |
| 2026-04-22 01:55 | 35.99515 | -121.32248 | 21997 ft | 412 kts | 171° |
| 2026-04-22 01:55 | 35.96837 | -121.30948 | 22521 ft | 417 kts | 169° |
| 2026-04-22 01:55 | 35.94145 | -121.29542 | 23014 ft | 423 kts | 168° |
| 2026-04-22 01:55 | 35.91433 | -121.28094 | 23469 ft | 426 kts | 168° |
| 2026-04-22 01:56 | 35.88696 | -121.26633 | 23842 ft | 430 kts | 167° |
| 2026-04-22 01:56 | 35.85946 | -121.25147 | 24316 ft | 432 kts | 166° |
| 2026-04-22 01:56 | 35.83197 | -121.23664 | 24886 ft | 431 kts | 167° |
| 2026-04-22 01:56 | 35.80443 | -121.22210 | 25401 ft | 431 kts | 167° |
| 2026-04-22 01:57 | 35.77677 | -121.20743 | 25898 ft | 434 kts | 167° |
| 2026-04-22 01:57 | 35.74896 | -121.19268 | 26349 ft | 436 kts | 167° |
| 2026-04-22 01:57 | 35.72099 | -121.17795 | 26797 ft | 438 kts | 168° |
| 2026-04-22 01:57 | 35.69281 | -121.16333 | 27174 ft | 442 kts | 167° |
| 2026-04-22 01:58 | 35.66441 | -121.14836 | 27556 ft | 445 kts | 167° |
| 2026-04-22 01:58 | 35.63589 | -121.13330 | 27965 ft | 447 kts | 167° |
| 2026-04-22 01:58 | 35.60717 | -121.11807 | 28341 ft | 450 kts | 167° |
| 2026-04-22 01:58 | 35.57871 | -121.10308 | 28711 ft | 452 kts | 167° |
| 2026-04-22 01:59 | 35.54973 | -121.08781 | 29042 ft | 455 kts | 167° |
| 2026-04-22 01:59 | 35.52050 | -121.07243 | 29419 ft | 457 kts | 167° |
| 2026-04-22 01:59 | 35.49115 | -121.05708 | 29736 ft | 459 kts | 166° |
| 2026-04-22 01:59 | 35.46171 | -121.04167 | 30099 ft | 461 kts | 166° |
| 2026-04-22 02:00 | 35.43235 | -121.02528 | 30395 ft | 471 kts | 160° |
| 2026-04-22 02:00 | 35.40520 | -121.00140 | 30662 ft | 491 kts | 143° |
| 2026-04-22 02:00 | 35.38324 | -120.96848 | 30978 ft | 504 kts | 131° |
| 2026-04-22 02:00 | 35.36392 | -120.93248 | 31303 ft | 507 kts | 129° |
| 2026-04-22 02:01 | 35.34482 | -120.89622 | 31602 ft | 506 kts | 129° |
| 2026-04-22 02:01 | 35.33201 | -120.87234 | 31858 ft | 505 kts | 129° |
| 2026-04-22 02:01 | 35.31262 | -120.83658 | 32235 ft | 503 kts | 130° |
| 2026-04-22 02:01 | 35.28658 | -120.78911 | 32729 ft | 502 kts | 130° |
| 2026-04-22 02:02 | 35.27364 | -120.76562 | 32979 ft | 501 kts | 130° |
| 2026-04-22 02:02 | 35.25420 | -120.73043 | 33163 ft | 503 kts | 130° |
| 2026-04-22 02:02 | 35.21431 | -120.65909 | 33141 ft | 511 kts | 130° |
| 2026-04-22 02:03 | 35.17409 | -120.58721 | 33113 ft | 513 kts | 130° |
| 2026-04-22 02:03 | 35.13382 | -120.51530 | 33111 ft | 513 kts | 130° |
| 2026-04-22 02:04 | 35.07301 | -120.40695 | 33123 ft | 514 kts | 130° |
| 2026-04-22 02:05 | 35.03296 | -120.33580 | 33127 ft | 512 kts | 130° |
| 2026-04-22 02:05 | 34.99261 | -120.26418 | 33075 ft | 511 kts | 130° |
| 2026-04-22 02:06 | 34.95217 | -120.19272 | 33125 ft | 512 kts | 130° |
| 2026-04-22 02:06 | 34.91180 | -120.12127 | 33098 ft | 511 kts | 130° |
| 2026-04-22 02:07 | 34.87152 | -120.05027 | 33123 ft | 508 kts | 131° |
| 2026-04-22 02:07 | 34.83114 | -119.97942 | 33091 ft | 509 kts | 132° |
| 2026-04-22 02:08 | 34.79069 | -119.90869 | 33137 ft | 508 kts | 130° |
| 2026-04-22 02:08 | 34.75029 | -119.83781 | 33066 ft | 509 kts | 131° |
| 2026-04-22 02:09 | 34.71035 | -119.76790 | 33101 ft | 506 kts | 131° |
| 2026-04-22 02:09 | 34.67003 | -119.69761 | 33064 ft | 508 kts | 131° |
| 2026-04-22 02:10 | 34.62963 | -119.62743 | 33054 ft | 506 kts | 131° |
| 2026-04-22 02:10 | 34.58929 | -119.55750 | 33178 ft | 506 kts | 131° |
| 2026-04-22 02:10 | 34.56910 | -119.52235 | 33055 ft | 507 kts | 131° |
| 2026-04-22 02:11 | 34.54898 | -119.48728 | 33047 ft | 505 kts | 131° |
| 2026-04-22 02:11 | 34.50872 | -119.41747 | 33102 ft | 506 kts | 131° |
| 2026-04-22 02:12 | 34.46829 | -119.34760 | 33105 ft | 506 kts | 131° |
| 2026-04-22 02:12 | 34.42783 | -119.27789 | 33124 ft | 505 kts | 131° |
| 2026-04-22 02:13 | 34.38744 | -119.20835 | 33114 ft | 503 kts | 132° |
| 2026-04-22 02:13 | 34.34738 | -119.13952 | 33115 ft | 503 kts | 132° |
| 2026-04-22 02:14 | 34.30700 | -119.07032 | 33140 ft | 503 kts | 132° |
| 2026-04-22 02:14 | 34.26667 | -119.00124 | 33131 ft | 504 kts | 132° |
| 2026-04-22 02:15 | 34.22618 | -118.93216 | 33119 ft | 502 kts | 133° |
| 2026-04-22 02:15 | 34.18572 | -118.86332 | 33089 ft | 502 kts | 133° |
| 2026-04-22 02:16 | 34.14527 | -118.79451 | 33107 ft | 502 kts | 133° |
| 2026-04-22 02:16 | 34.10486 | -118.72572 | 33129 ft | 503 kts | 133° |
| 2026-04-22 02:17 | 34.06430 | -118.65692 | 33126 ft | 502 kts | 133° |
| 2026-04-22 02:17 | 34.02394 | -118.58865 | 33084 ft | 499 kts | 133° |
| 2026-04-22 02:18 | 33.98389 | -118.52079 | 33120 ft | 500 kts | 133° |
| 2026-04-22 02:18 | 33.94342 | -118.45259 | 33127 ft | 502 kts | 134° |
| 2026-04-22 02:19 | 33.90121 | -118.38645 | 33129 ft | 496 kts | 138° |
| 2026-04-22 02:19 | 33.85497 | -118.32605 | 33116 ft | 487 kts | 143° |
| 2026-04-22 02:20 | 33.80773 | -118.26781 | 32734 ft | 481 kts | 143° |
| 2026-04-22 02:20 | 33.78488 | -118.23947 | 32441 ft | 465 kts | 143° |
| 2026-04-22 02:20 | 33.76248 | -118.21154 | 31705 ft | 463 kts | 142° |
| 2026-04-22 02:20 | 33.74087 | -118.18310 | 31084 ft | 459 kts | 141° |
| 2026-04-22 02:21 | 33.71957 | -118.15478 | 30463 ft | 454 kts | 141° |
| 2026-04-22 02:21 | 33.69846 | -118.12682 | 29817 ft | 449 kts | 141° |
| 2026-04-22 02:21 | 33.67762 | -118.09937 | 29293 ft | 441 kts | 141° |
| 2026-04-22 02:21 | 33.65699 | -118.07231 | 28683 ft | 437 kts | 141° |
| 2026-04-22 02:22 | 33.63634 | -118.04530 | 28138 ft | 440 kts | 141° |
| 2026-04-22 02:22 | 33.61549 | -118.01811 | 27508 ft | 447 kts | 141° |
| 2026-04-22 02:22 | 33.59438 | -117.99053 | 26938 ft | 451 kts | 141° |
| 2026-04-22 02:22 | 33.57307 | -117.96269 | 26329 ft | 453 kts | 140° |
| 2026-04-22 02:23 | 33.55175 | -117.93481 | 25718 ft | 454 kts | 140° |
| 2026-04-22 02:23 | 33.52996 | -117.90758 | 25134 ft | 451 kts | 143° |
| 2026-04-22 02:23 | 33.50732 | -117.88177 | 24519 ft | 447 kts | 144° |
| 2026-04-22 02:23 | 33.48504 | -117.85657 | 23941 ft | 443 kts | 144° |
| 2026-04-22 02:24 | 33.46287 | -117.83120 | 23313 ft | 438 kts | 143° |
| 2026-04-22 02:24 | 33.44106 | -117.80603 | 22741 ft | 432 kts | 143° |
| 2026-04-22 02:24 | 33.41924 | -117.78172 | 22239 ft | 425 kts | 145° |
| 2026-04-22 02:24 | 33.39710 | -117.75843 | 21634 ft | 422 kts | 146° |
| 2026-04-22 02:25 | 33.37516 | -117.73534 | 21091 ft | 418 kts | 145° |
| 2026-04-22 02:25 | 33.35343 | -117.71233 | 20545 ft | 415 kts | 145° |
| 2026-04-22 02:25 | 33.33197 | -117.68951 | 19995 ft | 411 kts | 145° |
| 2026-04-22 02:25 | 33.31069 | -117.66683 | 19452 ft | 407 kts | 145° |
| 2026-04-22 02:26 | 33.28962 | -117.64438 | 18915 ft | 403 kts | 145° |
| 2026-04-22 02:26 | 33.26878 | -117.62217 | 18374 ft | 400 kts | 144° |
| 2026-04-22 02:26 | 33.24814 | -117.60020 | 17836 ft | 394 kts | 144° |
| 2026-04-22 02:26 | 33.22772 | -117.57860 | 17316 ft | 391 kts | 145° |
| 2026-04-22 02:27 | 33.20739 | -117.55725 | 16808 ft | 388 kts | 144° |
| 2026-04-22 02:27 | 33.18717 | -117.53601 | 16298 ft | 385 kts | 144° |
| 2026-04-22 02:27 | 33.16709 | -117.51492 | 15779 ft | 383 kts | 144° |
| 2026-04-22 02:27 | 33.14719 | -117.49400 | 15319 ft | 379 kts | 144° |
| 2026-04-22 02:28 | 33.12743 | -117.47357 | 14999 ft | 372 kts | 147° |
| 2026-04-22 02:28 | 33.10680 | -117.45601 | 14674 ft | 356 kts | 153° |
| 2026-04-22 02:28 | 33.08682 | -117.44032 | 14475 ft | 342 kts | 153° |
| 2026-04-22 02:28 | 33.06745 | -117.42477 | 14271 ft | 329 kts | 153° |
| 2026-04-22 02:29 | 33.04876 | -117.40953 | 13923 ft | 323 kts | 152° |
| 2026-04-22 02:29 | 33.03047 | -117.39439 | 13603 ft | 316 kts | 152° |
| 2026-04-22 02:29 | 33.01263 | -117.37946 | 13219 ft | 313 kts | 152° |
| 2026-04-22 02:29 | 32.99479 | -117.36456 | 12778 ft | 312 kts | 151° |
| 2026-04-22 02:30 | 32.97710 | -117.34974 | 12358 ft | 310 kts | 151° |
| 2026-04-22 02:30 | 32.95953 | -117.33503 | 11965 ft | 308 kts | 151° |
| 2026-04-22 02:30 | 32.94204 | -117.32038 | 11553 ft | 306 kts | 151° |
| 2026-04-22 02:30 | 32.92469 | -117.30585 | 11150 ft | 304 kts | 151° |
| 2026-04-22 02:31 | 32.90750 | -117.29139 | 10755 ft | 302 kts | 148° |
| 2026-04-22 02:31 | 32.89343 | -117.27256 | 10341 ft | 312 kts | 122° |
| 2026-04-22 02:31 | 32.88706 | -117.24785 | 10052 ft | 313 kts | 102° |
| 2026-04-22 02:31 | 32.88374 | -117.22247 | 9705 ft | 309 kts | 102° |
| 2026-04-22 02:32 | 32.88047 | -117.19756 | 9477 ft | 301 kts | 102° |
| 2026-04-22 02:32 | 32.87729 | -117.17310 | 9157 ft | 297 kts | 102° |
| 2026-04-22 02:32 | 32.87418 | -117.14907 | 8825 ft | 293 kts | 102° |
| 2026-04-22 02:32 | 32.87093 | -117.12443 | 8000 ft | 309 kts | 102° |
| 2026-04-22 02:33 | 32.86747 | -117.09888 | 7141 ft | 314 kts | 102° |
| 2026-04-22 02:33 | 32.86397 | -117.07371 | 6615 ft | 299 kts | 102° |
| 2026-04-22 02:33 | 32.86060 | -117.05032 | 6304 ft | 282 kts | 102° |
| 2026-04-22 02:33 | 32.85744 | -117.02778 | 6157 ft | 272 kts | 102° |
| 2026-04-22 02:34 | 32.85446 | -117.00597 | 6084 ft | 261 kts | 102° |
| 2026-04-22 02:34 | 32.85164 | -116.98512 | 6056 ft | 250 kts | 102° |
| 2026-04-22 02:34 | 32.84891 | -116.96510 | 6109 ft | 243 kts | 101° |
| 2026-04-22 02:34 | 32.84607 | -116.94513 | 6153 ft | 248 kts | 102° |
| 2026-04-22 02:35 | 32.84309 | -116.92460 | 5887 ft | 253 kts | 102° |
| 2026-04-22 02:35 | 32.84040 | -116.90414 | 5621 ft | 250 kts | 101° |
| 2026-04-22 02:35 | 32.83764 | -116.88387 | 5407 ft | 247 kts | 102° |
| 2026-04-22 02:35 | 32.83471 | -116.86380 | 5184 ft | 245 kts | 104° |
| 2026-04-22 02:36 | 32.82748 | -116.84617 | 5098 ft | 231 kts | 139° |
| 2026-04-22 02:36 | 32.81404 | -116.83758 | 5150 ft | 219 kts | 177° |
| 2026-04-22 02:36 | 32.79907 | -116.83839 | 5213 ft | 218 kts | 191° |
| 2026-04-22 02:36 | 32.78375 | -116.84013 | 5277 ft | 222 kts | 189° |
| 2026-04-22 02:37 | 32.76887 | -116.84400 | 5169 ft | 220 kts | 213° |
| 2026-04-22 02:37 | 32.75840 | -116.85642 | 5139 ft | 207 kts | 238° |
| 2026-04-22 02:37 | 32.75103 | -116.87110 | 5121 ft | 209 kts | 239° |
| 2026-04-22 02:37 | 32.74069 | -116.88312 | 5129 ft | 211 kts | 216° |
| 2026-04-22 02:38 | 32.72825 | -116.89260 | 5112 ft | 214 kts | 216° |
| 2026-04-22 02:38 | 32.71581 | -116.90215 | 5115 ft | 212 kts | 216° |
| 2026-04-22 02:38 | 32.70339 | -116.91167 | 5128 ft | 213 kts | 216° |
| 2026-04-22 02:38 | 32.69088 | -116.92122 | 5098 ft | 215 kts | 216° |
| 2026-04-22 02:39 | 32.67829 | -116.93083 | 5097 ft | 215 kts | 216° |
| 2026-04-22 02:39 | 32.66550 | -116.94064 | 4725 ft | 226 kts | 217° |
| 2026-04-22 02:39 | 32.65522 | -116.95465 | 4181 ft | 230 kts | 248° |
| 2026-04-22 02:39 | 32.65148 | -116.97285 | 3752 ft | 229 kts | 271° |
| 2026-04-22 02:40 | 32.65642 | -116.98963 | 3635 ft | 211 kts | 304° |
| 2026-04-22 02:40 | 32.66592 | -117.00209 | 3437 ft | 198 kts | 313° |
| 2026-04-22 02:40 | 32.67557 | -117.01267 | 3312 ft | 178 kts | 314° |
| 2026-04-22 02:40 | 32.68427 | -117.02232 | 3111 ft | 165 kts | 313° |
| 2026-04-22 02:41 | 32.69223 | -117.03150 | 2853 ft | 156 kts | 314° |
| 2026-04-22 02:41 | 32.69956 | -117.04047 | 2680 ft | 144 kts | 301° |
| 2026-04-22 02:41 | 32.70341 | -117.05101 | 2607 ft | 138 kts | 280° |
| 2026-04-22 02:41 | 32.70486 | -117.06220 | 2459 ft | 138 kts | 277° |
| 2026-04-22 02:42 | 32.70626 | -117.07344 | 2257 ft | 137 kts | 278° |
| 2026-04-22 02:42 | 32.70769 | -117.08459 | 2010 ft | 136 kts | 278° |
| 2026-04-22 02:42 | 32.70958 | -117.09539 | 1843 ft | 133 kts | 286° |
| 2026-04-22 02:42 | 32.71252 | -117.10588 | 1652 ft | 135 kts | 288° |
| 2026-04-22 02:43 | 32.71550 | -117.11641 | 1428 ft | 135 kts | 285° |
| 2026-04-22 02:43 | 32.71824 | -117.12694 | 1207 ft | 136 kts | 284° |
| 2026-04-22 02:43 | 32.72077 | -117.13799 | 962 ft | 140 kts | 283° |
| 2026-04-22 02:43 | 32.72338 | -117.14928 | 676 ft | 142 kts | 285° |
| 2026-04-22 02:44 | 32.72635 | -117.16058 | 462 ft | 145 kts | 285° |
| 2026-04-22 02:44 | 32.72932 | -117.17199 | 248 ft | 142 kts | 285° |
| 2026-04-22 02:44 | 32.73193 | -117.18286 | 33 ft | 129 kts | 286° |
| 2026-04-22 02:44 | 32.73399 | -117.19138 | 17 ft | 83 kts | 284° |
| 2026-04-22 02:45 | 32.73500 | -117.19572 | 22 ft | 41 kts | 284° |
| 2026-04-22 02:45 | 32.73509 | -117.19835 | 23 ft | 24 kts | 246° |
| 2026-04-22 02:45 | 32.73491 | -117.19909 | 21 ft | 0 kts | 259° |
| 2026-04-22 02:46 | 32.73488 | -117.19921 | 22 ft | 4 kts | 248° |
| 2026-04-22 02:46 | 32.73463 | -117.19956 | 21 ft | 8 kts | 223° |
| 2026-04-22 02:47 | 32.73405 | -117.19975 | 20 ft | 10 kts | 184° |
| 2026-04-22 02:47 | 32.73356 | -117.19947 | 19 ft | 10 kts | 122° |
| 2026-04-22 02:47 | 32.73339 | -117.19911 | 20 ft | 3 kts | 114° |
| 2026-04-22 02:47 | 32.73337 | -117.19906 | 19 ft | 0 kts | 116° |